Terminal Aerodrome Forecast
Issued by NWS Duluth, MN

Home | Current Version | Previous Version | Text Only | Print | Product List | Glossary On
Versions: 1 2 3 4 5 6 7 8 9 10 11 12 13 14 15
000
FTUS43 KDLH 061300 AAA
TAFINL
TAF AMD
KINL 061335Z 0614/0712 13008KT P6SM VCSH SCT025 BKN060
      TEMPO 0615/0617 BKN025 OVC040
     FM070100 15009KT P6SM SCT050 BKN120 WS020/18035KT
     FM070500 16011KT P6SM VCSH BKN035 OVC060 WS020/19045KT
      TEMPO 0709/0712 4SM BR OVC014=

USA.gov is the U.S. government's official web portal to all federal, state and local government web resources and services.